Time;durP1;ratioP1;P1;durP2;ratioP2;P2;SDS_P1;SDS_P2;PMS_P1;PMS_P2;Temp;Humidity;BMP_temperature;BMP_pressure;BME280_temperature;BME280_humidity;BME280_pressure;Samples;Min_cycle;Max_cycle;Signal;HPM_P1;HPM_P2
2021/11/12 00:13:05;;;;;;;87.18;39.63;;;1.40;99.90;;;;;;2099130;28;20385;-75
2021/11/12 00:14:07;;;;;;;86.35;39.92;;;1.40;99.90;;;;;;2098428;28;20055;-76
2021/11/12 00:15:10;;;;;;;80.20;38.70;;;1.40;99.90;;;;;;2098144;28;20500;-75
2021/11/12 00:16:11;;;;;;;81.47;39.78;;;1.40;99.90;;;;;;2099014;28;20105;-75
2021/11/12 00:17:13;;;;;;;80.40;39.10;;;1.40;99.90;;;;;;2098671;28;20040;-76
2021/11/12 00:18:18;;;;;;;81.93;39.67;;;1.40;99.90;;;;;;2098795;28;20027;-77
2021/11/12 00:19:21;;;;;;;90.90;41.42;;;1.40;99.90;;;;;;2098325;28;20473;-76
2021/11/12 00:20:22;;;;;;;81.50;39.05;;;1.40;99.90;;;;;;2097701;28;20032;-76
2021/11/12 00:21:23;;;;;;;80.00;38.95;;;1.40;99.90;;;;;;2097828;28;20094;-76
2021/11/12 00:22:24;;;;;;;80.55;39.10;;;1.40;99.90;;;;;;2098232;28;20042;-75
2021/11/12 00:23:26;;;;;;;79.75;38.35;;;1.40;99.90;;;;;;2098584;28;20549;-76
2021/11/12 00:24:27;;;;;;;79.45;38.50;;;1.40;99.90;;;;;;2098626;28;20028;-76
2021/11/12 00:25:28;;;;;;;83.75;40.38;;;1.30;99.90;;;;;;2098651;28;20021;-76
2021/11/12 00:26:29;;;;;;;79.95;39.30;;;1.30;99.90;;;;;;2097910;28;20029;-76
2021/11/12 00:27:32;;;;;;;77.43;38.25;;;1.30;99.90;;;;;;2097886;28;20578;-76
2021/11/12 00:28:39;;;;;;;79.65;38.03;;;1.30;99.90;;;;;;2097903;28;20465;-76
2021/11/12 00:30:10;;;;;;;76.15;37.00;;;1.30;99.90;;;;;;2098116;28;20122;-76
2021/11/12 00:32:09;;;;;;;78.70;37.28;;;1.30;99.90;;;;;;2098264;28;20025;-76
2021/11/12 00:33:40;;;;;;;78.90;37.72;;;1.30;99.90;;;;;;2098676;28;20063;-76
2021/11/12 00:34:59;;;;;;;;;;;1.30;99.90;;;;;;2098639;28;20427;-76
2021/11/12 00:37:16;;;;;;;80.25;36.90;;;1.30;99.90;;;;;;2098457;28;20071;-76
2021/11/12 00:38:23;;;;;;;81.70;37.20;;;1.30;99.90;;;;;;2098634;28;20032;-76
2021/11/12 00:41:00;;;;;;;84.20;37.80;;;1.40;99.90;;;;;;2096586;28;20053;-75
2021/11/12 00:42:14;;;;;;;83.28;38.38;;;1.40;99.90;;;;;;2097598;28;20032;-77
2021/11/12 00:44:43;;;;;;;94.70;42.03;;;1.40;99.90;;;;;;2098564;28;20380;-78
2021/11/12 00:45:53;;;;;;;93.07;42.03;;;1.50;99.90;;;;;;2098597;28;20020;-75
2021/11/12 00:47:05;;;;;;;95.15;42.22;;;1.50;99.90;;;;;;2097912;28;20034;-75
2021/11/12 00:49:14;;;;;;;92.68;43.28;;;1.60;99.90;;;;;;2097809;28;20021;-76
2021/11/12 00:51:23;;;;;;;101.35;46.05;;;1.60;99.90;;;;;;2097419;28;20032;-76
2021/11/12 00:52:38;;;;;;;102.50;46.08;;;1.60;99.90;;;;;;2098041;28;20099;-76
2021/11/12 00:54:22;;;;;;;106.88;47.78;;;1.70;99.90;;;;;;2098616;28;20551;-76
2021/11/12 00:55:04;;;;;;;108.68;46.40;;;1.70;99.90;;;;;;2096232;28;20028;-76
2021/11/12 00:56:05;;;;;;;108.25;47.65;;;1.70;99.90;;;;;;2099206;28;20036;-76
2021/11/12 00:57:05;;;;;;;107.00;46.65;;;1.70;99.90;;;;;;2099277;28;20492;-76
2021/11/12 00:58:09;;;;;;;104.65;47.90;;;1.80;99.90;;;;;;2099092;28;20036;-76
2021/11/12 00:59:09;;;;;;;111.90;49.67;;;1.80;99.90;;;;;;2098959;28;20040;-77
2021/11/12 01:00:12;;;;;;;117.20;51.63;;;1.80;99.90;;;;;;2098290;28;20094;-76
2021/11/12 01:01:13;;;;;;;128.68;56.40;;;1.80;99.90;;;;;;2098205;28;20020;-76
2021/11/12 01:02:14;;;;;;;124.78;55.75;;;1.90;99.90;;;;;;2098486;28;20060;-76
2021/11/12 01:03:15;;;;;;;122.00;54.20;;;1.90;99.90;;;;;;2098414;28;20032;-76
2021/11/12 01:04:20;;;;;;;123.72;54.75;;;1.90;99.90;;;;;;2098269;28;20016;-76
2021/11/12 01:05:21;;;;;;;112.05;51.65;;;1.90;99.90;;;;;;2097759;28;20068;-76
2021/11/12 01:06:23;;;;;;;113.95;51.67;;;1.90;99.90;;;;;;2097833;28;20028;-75
2021/11/12 01:07:24;;;;;;;104.18;50.20;;;2.00;99.90;;;;;;2098297;28;20062;-77
2021/11/12 01:08:25;;;;;;;104.65;49.88;;;2.00;99.90;;;;;;2098473;28;20098;-77
2021/11/12 01:09:25;;;;;;;105.68;49.92;;;2.00;99.90;;;;;;2097760;28;20499;-76
2021/11/12 01:10:27;;;;;;;112.07;50.08;;;2.00;99.90;;;;;;2097295;28;20021;-76
2021/11/12 01:11:28;;;;;;;105.93;49.38;;;2.10;99.90;;;;;;2097003;28;20039;-77
2021/11/12 01:12:29;;;;;;;105.70;50.33;;;2.10;99.90;;;;;;2089386;28;20531;-75
2021/11/12 01:13:30;;;;;;;102.60;48.78;;;2.10;99.90;;;;;;2081257;28;20029;-76
2021/11/12 01:14:31;;;;;;;103.22;48.92;;;2.10;99.90;;;;;;2097808;28;20028;-75
2021/11/12 01:15:31;;;;;;;95.70;46.13;;;2.10;99.90;;;;;;2098256;28;20044;-76
2021/11/12 01:16:33;;;;;;;96.05;45.20;;;2.20;99.90;;;;;;2097791;28;20028;-76
2021/11/12 01:17:34;;;;;;;89.20;42.70;;;2.20;99.90;;;;;;2097595;28;20392;-76
2021/11/12 01:18:36;;;;;;;91.75;43.80;;;2.20;99.90;;;;;;2098314;28;20033;-76
2021/11/12 01:19:37;;;;;;;90.60;42.92;;;2.20;99.90;;;;;;2097611;28;20469;-76
2021/11/12 01:20:39;;;;;;;93.13;44.50;;;2.30;99.90;;;;;;2097367;28;20032;-75
2021/11/12 01:21:40;;;;;;;89.78;43.63;;;2.30;99.90;;;;;;2097999;28;20068;-76
2021/11/12 01:22:42;;;;;;;87.53;42.58;;;2.30;99.90;;;;;;2098335;28;20468;-76
2021/11/12 01:23:45;;;;;;;86.40;40.35;;;2.40;99.90;;;;;;2098395;28;20029;-76
2021/11/12 01:24:46;;;;;;;86.78;41.47;;;2.40;99.90;;;;;;2098374;28;20017;-76
2021/11/12 01:25:47;;;;;;;82.32;40.58;;;2.40;99.90;;;;;;2098642;28;20017;-76
2021/11/12 01:26:48;;;;;;;84.68;41.13;;;2.40;99.90;;;;;;2098732;28;20029;-76
2021/11/12 01:27:50;;;;;;;80.82;38.70;;;2.40;99.90;;;;;;2098138;28;20424;-76
2021/11/12 01:28:51;;;;;;;78.05;37.60;;;2.40;99.90;;;;;;2098163;28;20021;-76
2021/11/12 01:29:52;;;;;;;77.97;37.60;;;2.40;99.90;;;;;;2098941;28;20054;-76
2021/11/12 01:30:53;;;;;;;76.55;36.38;;;2.40;99.90;;;;;;2098535;28;20100;-76
2021/11/12 01:31:54;;;;;;;73.63;35.60;;;2.50;99.90;;;;;;2089232;28;20385;-76
2021/11/12 01:32:54;;;;;;;75.07;36.33;;;2.50;99.90;;;;;;2089405;28;20035;-76
2021/11/12 01:33:57;;;;;;;74.07;35.40;;;2.50;99.90;;;;;;2098367;28;20046;-76
2021/11/12 01:35:00;;;;;;;73.55;36.13;;;2.50;99.90;;;;;;2098310;28;20028;-78
2021/11/12 01:36:29;;;;;;;72.10;34.92;;;2.60;99.90;;;;;;2097662;28;20036;-78
2021/11/12 01:37:24;;;;;;;72.55;35.25;;;2.60;99.90;;;;;;2097454;28;20085;-77
2021/11/12 01:38:26;;;;;;;74.32;35.58;;;2.60;99.90;;;;;;2097961;28;20484;-75
2021/11/12 01:39:27;;;;;;;71.20;34.55;;;2.60;99.90;;;;;;2098115;28;20112;-77
2021/11/12 01:40:29;;;;;;;70.22;33.90;;;2.60;99.90;;;;;;2097237;28;20047;-78
2021/11/12 01:41:31;;;;;;;68.35;33.88;;;2.60;99.90;;;;;;2097354;28;20024;-77
2021/11/12 01:42:54;;;;;;;65.50;33.15;;;2.70;99.90;;;;;;2098233;28;20060;-77
2021/11/12 01:43:56;;;;;;;68.53;33.00;;;2.70;99.90;;;;;;2098165;28;20032;-78
2021/11/12 01:45:03;;;;;;;66.30;32.78;;;2.70;99.90;;;;;;2097496;28;20056;-78
2021/11/12 01:50:19;;;;;;;66.57;32.53;;;2.80;99.90;;;;;;2097885;28;20051;-76
2021/11/12 01:52:42;;;;;;;67.75;33.13;;;2.80;99.90;;;;;;2098615;28;20082;-75
2021/11/12 01:53:48;;;;;;;63.53;32.47;;;2.80;99.90;;;;;;2098409;28;20108;-75
2021/11/12 01:56:11;;;;;;;64.78;32.22;;;2.90;99.90;;;;;;2097504;28;20036;-75
2021/11/12 01:59:25;;;;;;;66.70;32.50;;;2.90;99.90;;;;;;2098146;28;20051;-76
2021/11/12 02:00:28;;;;;;;67.28;32.85;;;2.90;99.90;;;;;;2097966;28;20480;-76
2021/11/12 02:01:31;;;;;;;68.28;32.90;;;2.90;99.90;;;;;;2098006;28;20036;-76
2021/11/12 02:02:31;;;;;;;66.40;32.58;;;2.90;99.90;;;;;;2097455;28;20028;-76
2021/11/12 02:03:32;;;;;;;63.00;31.90;;;3.00;99.90;;;;;;2097512;28;20043;-77
2021/11/12 02:04:32;;;;;;;66.85;32.47;;;3.00;99.90;;;;;;2099935;28;20039;-77
2021/11/12 02:05:33;;;;;;;70.05;34.65;;;3.00;99.90;;;;;;2099242;28;20468;-76
2021/11/12 02:06:34;;;;;;;69.45;33.92;;;3.00;99.90;;;;;;2099247;28;20074;-76
2021/11/12 02:07:36;;;;;;;70.65;33.58;;;3.00;99.90;;;;;;2099214;28;20044;-76
2021/11/12 02:08:37;;;;;;;66.55;32.55;;;3.00;99.90;;;;;;2099943;28;20074;-76
2021/11/12 02:09:38;;;;;;;69.40;33.72;;;3.00;99.90;;;;;;2100024;28;20475;-77
2021/11/12 02:10:39;;;;;;;68.25;33.38;;;3.10;99.90;;;;;;2099696;28;20023;-76
2021/11/12 02:11:40;;;;;;;63.28;31.92;;;3.00;99.90;;;;;;2099010;28;20103;-76
2021/11/12 02:13:08;;;;;;;71.68;34.63;;;3.10;99.90;;;;;;2099318;28;20772;-77
2021/11/12 02:14:04;;;;;;;64.93;31.25;;;3.10;99.90;;;;;;2099475;28;20040;-76
2021/11/12 02:15:05;;;;;;;65.40;33.15;;;3.10;99.90;;;;;;2099740;28;20025;-77
2021/11/12 02:16:07;;;;;;;70.75;34.42;;;3.10;99.90;;;;;;2098841;28;20032;-77
2021/11/12 02:17:13;;;;;;;69.10;34.40;;;3.20;99.90;;;;;;2099193;28;20055;-77
2021/11/12 02:18:15;;;;;;;69.30;33.67;;;3.20;99.90;;;;;;2099030;28;20453;-76
2021/11/12 02:19:16;;;;;;;67.88;33.47;;;3.20;99.90;;;;;;2099331;28;20033;-76
2021/11/12 02:20:25;;;;;;;65.97;32.63;;;3.20;99.90;;;;;;2098983;28;20443;-75
2021/11/12 02:22:32;;;;;;;63.85;32.95;;;3.20;99.90;;;;;;2099869;28;20411;-76
2021/11/12 02:23:42;;;;;;;69.22;33.22;;;3.20;99.90;;;;;;2098987;28;20047;-76
2021/11/12 02:24:50;;;;;;;71.82;34.40;;;3.20;99.90;;;;;;2091931;28;20726;-76
2021/11/12 02:25:52;;;;;;;68.50;33.70;;;3.30;99.90;;;;;;2100185;28;20500;-77
2021/11/12 02:26:57;;;;;;;68.32;34.20;;;3.30;99.90;;;;;;2099125;28;20020;-77
2021/11/12 02:28:06;;;;;;;69.53;34.10;;;3.30;99.90;;;;;;2099215;28;20028;-76
2021/11/12 02:29:09;;;;;;;73.32;35.53;;;3.30;99.90;;;;;;2099724;28;20029;-76
2021/11/12 02:30:19;;;;;;;69.50;33.80;;;3.30;99.90;;;;;;2099562;28;20031;-76
2021/11/12 02:31:21;;;;;;;71.05;34.40;;;3.30;99.90;;;;;;2099037;28;20028;-76
2021/11/12 02:32:31;;;;;;;71.15;33.42;;;3.30;99.90;;;;;;2099385;28;20080;-76
2021/11/12 02:33:33;;;;;;;69.30;33.90;;;3.30;99.90;;;;;;2099753;28;20025;-76
2021/11/12 02:34:34;;;;;;;73.32;34.10;;;3.40;99.90;;;;;;2099642;28;20079;-76
2021/11/12 02:36:02;;;;;;;68.22;32.58;;;3.40;99.90;;;;;;2099852;28;20025;-77
2021/11/12 02:37:03;;;;;;;69.70;33.05;;;3.40;99.90;;;;;;2100405;28;20400;-77
2021/11/12 02:38:04;;;;;;;70.22;34.10;;;3.40;99.90;;;;;;2099934;28;20029;-77
2021/11/12 02:39:08;;;;;;;68.00;33.10;;;3.50;99.90;;;;;;2099960;28;20032;-77
2021/11/12 02:40:09;;;;;;;75.95;35.75;;;3.40;99.90;;;;;;2100560;28;20044;-77
2021/11/12 02:41:09;;;;;;;81.07;36.83;;;3.50;99.90;;;;;;2102485;28;20056;-77
2021/11/12 02:42:11;;;;;;;72.63;35.30;;;3.50;99.90;;;;;;2101019;28;20052;-76
2021/11/12 02:43:12;;;;;;;69.32;34.35;;;3.50;99.90;;;;;;2101165;28;20032;-76
2021/11/12 02:44:13;;;;;;;69.78;33.95;;;3.50;99.90;;;;;;2100845;28;20050;-76
2021/11/12 02:45:13;;;;;;;69.72;33.35;;;3.50;99.90;;;;;;2101191;28;20070;-75
2021/11/12 02:46:17;;;;;;;71.28;34.53;;;3.50;99.90;;;;;;2100631;28;20016;-75
2021/11/12 02:47:19;;;;;;;69.68;33.45;;;3.50;99.90;;;;;;2100269;28;20403;-76
2021/11/12 02:48:19;;;;;;;69.15;33.03;;;3.50;99.90;;;;;;2098868;28;20096;-76
2021/11/12 02:49:20;;;;;;;65.05;32.83;;;3.50;99.90;;;;;;2090280;28;20043;-76
2021/11/12 02:50:21;;;;;;;63.10;32.03;;;3.60;99.90;;;;;;2098502;28;20063;-76
2021/11/12 02:51:28;;;;;;;65.15;31.67;;;3.60;99.90;;;;;;2099389;28;20384;-76
2021/11/12 02:52:28;;;;;;;61.42;30.77;;;3.60;99.90;;;;;;2099456;28;20029;-76
2021/11/12 02:53:29;;;;;;;62.42;30.92;;;3.60;99.90;;;;;;2099385;28;20029;-76
2021/11/12 02:54:30;;;;;;;65.90;32.30;;;3.60;99.90;;;;;;2099292;28;20388;-76
2021/11/12 02:55:31;;;;;;;67.07;32.78;;;3.60;99.90;;;;;;2098361;28;20031;-73
2021/11/12 02:56:33;;;;;;;64.85;31.85;;;3.60;99.90;;;;;;2097789;28;20029;-73
2021/11/12 02:57:36;;;;;;;60.35;30.45;;;3.60;99.90;;;;;;2097544;28;20056;-74
2021/11/12 02:58:38;;;;;;;57.92;30.27;;;3.70;99.90;;;;;;2097797;28;20032;-73
2021/11/12 02:59:39;;;;;;;63.17;31.73;;;3.60;99.90;;;;;;2098458;28;20060;-73
2021/11/12 03:00:42;;;;;;;60.33;30.60;;;3.70;99.90;;;;;;2097869;28;20020;-73
2021/11/12 03:01:46;;;;;;;61.85;31.58;;;3.60;99.90;;;;;;2098139;28;20020;-73
2021/11/12 03:02:47;;;;;;;61.92;30.90;;;3.70;99.90;;;;;;2098700;28;20555;-73
2021/11/12 03:03:48;;;;;;;66.95;32.92;;;3.70;99.90;;;;;;2098622;28;20085;-73
2021/11/12 03:04:48;;;;;;;63.13;30.98;;;3.70;99.90;;;;;;2098667;28;20024;-73
2021/11/12 03:05:49;;;;;;;61.00;30.25;;;3.70;99.90;;;;;;2098686;28;20048;-73
2021/11/12 03:06:50;;;;;;;62.47;31.60;;;3.70;99.90;;;;;;2098610;28;20471;-73
2021/11/12 03:07:50;;;;;;;62.28;30.98;;;3.70;99.90;;;;;;2098529;28;20012;-73
2021/11/12 03:08:51;;;;;;;62.25;31.92;;;3.70;99.90;;;;;;2098742;28;20194;-73
2021/11/12 03:09:52;;;;;;;65.25;32.53;;;3.70;99.90;;;;;;2098641;28;20056;-73
2021/11/12 03:10:55;;;;;;;63.15;31.60;;;3.70;99.90;;;;;;2097298;28;20162;-73
2021/11/12 03:11:58;;;;;;;63.78;32.42;;;3.70;99.90;;;;;;2097629;28;20040;-73
2021/11/12 03:12:58;;;;;;;61.08;31.05;;;3.70;99.90;;;;;;2097806;28;20037;-73
2021/11/12 03:13:59;;;;;;;60.25;30.83;;;3.80;99.90;;;;;;2097881;28;20025;-73
2021/11/12 03:15:00;;;;;;;66.07;33.30;;;3.80;99.90;;;;;;2098353;28;20621;-73
2021/11/12 03:16:02;;;;;;;73.90;35.92;;;3.80;99.90;;;;;;2098594;28;20032;-73
2021/11/12 03:17:04;;;;;;;70.53;34.80;;;3.80;99.90;;;;;;2097805;28;20036;-73
2021/11/12 03:18:05;;;;;;;64.57;32.72;;;3.80;99.90;;;;;;2098061;28;20064;-75
2021/11/12 03:19:08;;;;;;;70.07;33.10;;;3.80;99.90;;;;;;2098236;28;20503;-75
2021/11/12 03:20:12;;;;;;;65.25;33.10;;;3.80;99.90;;;;;;2098456;28;20024;-76
2021/11/12 03:21:17;;;;;;;67.85;32.60;;;3.80;99.90;;;;;;2098626;28;20036;-78
2021/11/12 03:22:21;;;;;;;66.72;31.90;;;3.80;99.90;;;;;;2099293;28;20093;-75
2021/11/12 03:23:27;;;;;;;65.05;32.10;;;3.80;99.90;;;;;;2099048;28;20060;-75
2021/11/12 03:24:33;;;;;;;62.17;30.67;;;3.80;99.90;;;;;;2098960;28;20496;-76
2021/11/12 03:28:01;;;;;;;64.38;31.40;;;3.80;99.90;;;;;;2098981;28;20365;-75
2021/11/12 04:00:22;;;;;;;70.25;32.72;;;3.80;99.90;;;;;;2098505;28;20024;-76
2021/11/12 04:01:34;;;;;;;71.82;33.95;;;3.80;99.90;;;;;;2098030;28;20505;-76
2021/11/12 04:02:52;;;;;;;73.43;34.22;;;3.80;99.90;;;;;;2091136;28;20083;-76
2021/11/12 04:04:10;;;;;;;69.25;34.30;;;3.80;99.90;;;;;;2098222;28;20811;-77
2021/11/12 04:06:44;;;;;;;69.13;32.45;;;3.80;99.90;;;;;;2098269;28;20468;-76
2021/11/12 04:17:10;;;;;;;66.63;32.45;;;3.80;99.90;;;;;;2097930;28;20032;-73
2021/11/12 05:10:26;;;;;;;62.25;31.08;;;3.90;99.90;;;;;;2100732;28;20028;-73
2021/11/12 05:11:19;;;;;;;66.70;32.93;;;3.90;99.90;;;;;;2088946;28;20040;-72
2021/11/12 05:25:35;;;;;;;68.68;33.45;;;3.90;99.90;;;;;;2098522;28;20028;-74
2021/11/12 05:34:48;;;;;;;158.35;64.22;;;3.90;99.90;;;;;;2077021;28;20465;-73
2021/11/12 05:43:57;;;;;;;71.97;38.08;;;3.90;99.90;;;;;;2097781;28;20029;-74
2021/11/12 05:50:03;;;;;;;70.63;34.63;;;3.80;99.90;;;;;;2100873;28;19908;-73
2021/11/12 05:52:21;;;;;;;69.03;34.55;;;3.80;99.90;;;;;;2100933;28;20036;-73
2021/11/12 05:56:00;;;;;;;67.75;34.08;;;3.70;99.90;;;;;;2101176;28;20115;-74
2021/11/12 05:57:01;;;;;;;67.50;33.67;;;3.70;99.90;;;;;;2099659;28;20036;-73
2021/11/12 05:58:01;;;;;;;66.32;33.83;;;3.70;99.90;;;;;;2096719;28;20028;-74
2021/11/12 05:59:03;;;;;;;62.75;34.03;;;3.70;99.90;;;;;;2097072;28;20500;-73
2021/11/12 06:00:07;;;;;;;68.40;34.78;;;3.70;99.90;;;;;;2095923;28;20507;-74
2021/11/12 06:01:08;;;;;;;65.57;33.80;;;3.70;99.90;;;;;;2096554;28;20067;-73
2021/11/12 06:02:08;;;;;;;64.07;33.65;;;3.70;99.90;;;;;;2096164;28;20036;-74
2021/11/12 06:03:09;;;;;;;65.32;33.35;;;3.70;99.90;;;;;;2097055;28;20040;-74
2021/11/12 06:04:11;;;;;;;63.42;32.85;;;3.70;99.90;;;;;;2096946;28;20033;-73
2021/11/12 06:05:12;;;;;;;61.15;32.17;;;3.60;99.90;;;;;;2096391;28;20047;-74
2021/11/12 06:06:12;;;;;;;61.65;31.95;;;3.70;99.90;;;;;;2096453;28;20020;-74
2021/11/12 06:07:13;;;;;;;61.90;32.83;;;3.70;99.90;;;;;;2097007;28;20105;-74
2021/11/12 06:08:14;;;;;;;67.63;34.05;;;3.70;99.90;;;;;;2097028;28;20025;-72
2021/11/12 06:09:15;;;;;;;66.38;34.05;;;3.70;99.90;;;;;;2096936;28;20039;-73
2021/11/12 06:10:17;;;;;;;61.25;31.67;;;3.70;99.90;;;;;;2096552;28;20108;-73
2021/11/12 06:11:18;;;;;;;60.78;31.73;;;3.70;99.90;;;;;;2096755;28;20033;-74
2021/11/12 06:12:19;;;;;;;62.63;32.33;;;3.70;99.90;;;;;;2097105;28;20033;-74
2021/11/12 06:13:20;;;;;;;59.80;31.67;;;3.70;99.90;;;;;;2096824;28;20033;-74
2021/11/12 06:14:22;;;;;;;59.30;31.40;;;3.60;99.90;;;;;;2096627;28;20029;-76
2021/11/12 06:15:22;;;;;;;64.85;32.10;;;3.60;99.90;;;;;;2097778;28;20059;-75
2021/11/12 06:16:24;;;;;;;65.55;33.78;;;3.60;99.90;;;;;;2097141;28;20055;-76
2021/11/12 06:17:25;;;;;;;60.80;31.85;;;3.60;99.90;;;;;;2088710;28;20104;-74
2021/11/12 06:18:26;;;;;;;63.88;33.22;;;3.70;99.90;;;;;;2088894;28;20021;-76
2021/11/12 06:19:26;;;;;;;57.90;31.27;;;3.60;99.90;;;;;;2097101;28;20059;-75
2021/11/12 06:20:28;;;;;;;61.50;32.75;;;3.60;99.90;;;;;;2097321;28;20028;-75
2021/11/12 06:21:29;;;;;;;57.40;30.77;;;3.70;99.90;;;;;;2096656;28;20555;-75
2021/11/12 06:22:30;;;;;;;54.25;28.65;;;3.60;99.90;;;;;;2097696;28;20036;-75
2021/11/12 06:23:31;;;;;;;55.17;29.67;;;3.70;99.90;;;;;;2097064;28;20165;-75
2021/11/12 06:24:32;;;;;;;53.40;28.27;;;3.70;99.90;;;;;;2096869;28;20472;-76
2021/11/12 06:25:32;;;;;;;56.47;29.83;;;3.70;99.90;;;;;;2096912;28;20122;-75
2021/11/12 06:26:33;;;;;;;54.33;28.75;;;3.70;99.90;;;;;;2096835;28;20027;-76
2021/11/12 06:27:34;;;;;;;54.80;28.77;;;3.70;99.90;;;;;;2097745;28;20044;-76
2021/11/12 06:28:36;;;;;;;54.45;28.70;;;3.70;99.90;;;;;;2096995;28;20025;-75
2021/11/12 06:29:37;;;;;;;51.20;26.83;;;3.70;99.90;;;;;;2097146;28;20027;-76
2021/11/12 06:30:38;;;;;;;58.63;29.77;;;3.70;99.90;;;;;;2097165;28;20452;-78
2021/11/12 06:31:38;;;;;;;60.05;29.83;;;3.70;99.90;;;;;;2097342;28;20050;-77
2021/11/12 06:32:41;;;;;;;59.35;30.58;;;3.70;99.90;;;;;;2097571;28;20108;-76
2021/11/12 06:33:42;;;;;;;57.92;30.13;;;3.70;99.90;;;;;;2097547;28;20052;-76
2021/11/12 06:34:43;;;;;;;58.00;30.17;;;3.70;99.90;;;;;;2097002;28;20025;-76
2021/11/12 06:35:43;;;;;;;59.95;29.73;;;3.70;99.90;;;;;;2088773;28;20039;-76
2021/11/12 06:36:44;;;;;;;57.28;28.77;;;3.70;99.90;;;;;;2096971;28;20499;-77
2021/11/12 06:37:45;;;;;;;62.40;31.17;;;3.70;99.90;;;;;;2097545;28;20107;-76
2021/11/12 06:38:46;;;;;;;58.88;29.75;;;3.70;99.90;;;;;;2097711;28;20055;-75
2021/11/12 06:39:46;;;;;;;56.60;28.35;;;3.70;99.90;;;;;;2097022;28;20051;-76
2021/11/12 06:40:48;;;;;;;57.00;28.63;;;3.70;99.90;;;;;;2096202;28;20036;-71
2021/11/12 06:43:20;;;;;;;54.35;27.40;;;3.70;99.90;;;;;;2097374;28;20040;-71
2021/11/12 06:49:28;;;;;;;57.28;28.52;;;3.80;99.90;;;;;;2096775;28;20075;-71
2021/11/12 06:50:29;;;;;;;56.95;28.00;;;3.80;99.90;;;;;;2097358;28;20090;-70
2021/11/12 06:51:29;;;;;;;51.67;26.58;;;3.80;99.90;;;;;;2097873;28;20506;-71
2021/11/12 06:52:31;;;;;;;55.10;26.48;;;3.80;99.90;;;;;;2098246;28;20023;-70
2021/11/12 06:53:32;;;;;;;47.90;25.55;;;3.90;99.90;;;;;;2098476;28;20021;-70
2021/11/12 06:54:33;;;;;;;48.38;24.63;;;3.90;99.90;;;;;;2098893;28;20029;-73
2021/11/12 06:55:33;;;;;;;52.95;26.02;;;3.90;99.90;;;;;;2098304;28;20027;-74
2021/11/12 06:56:34;;;;;;;49.38;25.77;;;3.90;99.90;;;;;;2098336;28;20666;-73
2021/11/12 06:57:35;;;;;;;50.97;25.33;;;3.90;99.90;;;;;;2098835;28;20781;-75
2021/11/12 06:58:38;;;;;;;48.40;24.73;;;3.90;99.90;;;;;;2099116;28;20027;-72
2021/11/12 06:59:39;;;;;;;44.25;24.17;;;3.90;99.90;;;;;;2098957;28;20020;-71
2021/11/12 07:00:40;;;;;;;50.83;24.70;;;3.90;99.90;;;;;;2098627;28;20483;-71
2021/11/12 07:01:41;;;;;;;48.33;24.23;;;3.90;99.90;;;;;;2098858;28;20074;-75
2021/11/12 07:02:42;;;;;;;48.05;24.25;;;3.90;99.90;;;;;;2099184;28;20468;-72
2021/11/12 07:03:44;;;;;;;47.28;24.25;;;4.00;99.90;;;;;;2099017;28;20067;-71
2021/11/12 07:04:45;;;;;;;46.60;24.33;;;4.00;99.90;;;;;;2098922;28;20503;-71
2021/11/12 07:05:46;;;;;;;51.92;25.15;;;4.00;99.90;;;;;;2097730;28;20096;-71
2021/11/12 07:06:47;;;;;;;53.00;25.42;;;4.00;99.90;;;;;;2097963;28;20449;-73
2021/11/12 07:07:48;;;;;;;55.72;25.92;;;4.00;99.90;;;;;;2097711;28;20048;-70
2021/11/12 07:08:49;;;;;;;45.97;23.70;;;3.90;99.90;;;;;;2098176;28;20416;-70
2021/11/12 07:09:51;;;;;;;49.28;24.58;;;4.00;99.90;;;;;;2098836;28;20029;-71
2021/11/12 07:10:52;;;;;;;49.35;25.20;;;4.00;99.90;;;;;;2097422;28;20698;-72
2021/11/12 07:11:53;;;;;;;60.95;32.55;;;4.00;99.90;;;;;;2097846;28;20154;-71
2021/11/12 07:12:53;;;;;;;51.88;26.23;;;4.00;99.90;;;;;;2097862;28;20507;-73
2021/11/12 07:13:54;;;;;;;56.55;27.83;;;4.00;99.90;;;;;;2098492;28;20056;-74
2021/11/12 07:14:55;;;;;;;52.08;28.00;;;4.00;99.90;;;;;;2098149;28;20487;-73
2021/11/12 07:15:57;;;;;;;48.75;25.30;;;4.00;99.90;;;;;;2097464;28;20466;-72
2021/11/12 07:16:58;;;;;;;48.40;24.05;;;4.10;99.90;;;;;;2097560;28;20046;-74
2021/11/12 07:17:59;;;;;;;47.72;23.90;;;4.00;99.90;;;;;;2097933;28;20028;-74
2021/11/12 07:19:01;;;;;;;46.05;23.00;;;4.10;99.90;;;;;;2098294;28;20044;-74
2021/11/12 07:20:02;;;;;;;44.78;23.63;;;4.10;99.90;;;;;;2098300;28;20055;-74
2021/11/12 07:21:03;;;;;;;45.90;23.77;;;4.10;99.90;;;;;;2097437;28;20064;-73
2021/11/12 07:22:04;;;;;;;47.47;24.17;;;4.10;99.90;;;;;;2096951;28;20469;-73
2021/11/12 07:23:05;;;;;;;46.20;23.73;;;4.10;99.90;;;;;;2098263;28;20056;-73
2021/11/12 07:24:05;;;;;;;49.42;24.83;;;4.10;99.90;;;;;;2089178;28;20502;-73
2021/11/12 07:25:08;;;;;;;49.15;25.33;;;4.10;99.90;;;;;;2080950;28;20053;-73
2021/11/12 07:26:09;;;;;;;44.25;23.10;;;4.10;99.90;;;;;;2089635;28;20040;-73
2021/11/12 07:27:10;;;;;;;46.60;24.17;;;4.10;99.90;;;;;;2097616;28;20033;-73
2021/11/12 07:28:11;;;;;;;45.83;24.30;;;4.20;99.90;;;;;;2098086;28;20115;-73
2021/11/12 07:29:11;;;;;;;47.75;24.98;;;4.20;99.90;;;;;;2098318;28;20119;-73
2021/11/12 07:30:14;;;;;;;51.35;26.35;;;4.20;99.90;;;;;;2097470;28;20530;-73
2021/11/12 07:31:16;;;;;;;46.00;24.33;;;4.20;99.90;;;;;;2097791;28;20093;-77
2021/11/12 07:32:18;;;;;;;48.38;23.52;;;4.30;99.90;;;;;;2098229;28;20028;-74
2021/11/12 07:33:20;;;;;;;45.08;23.75;;;4.30;99.90;;;;;;2098094;28;20523;-73
2021/11/12 07:34:21;;;;;;;44.67;23.08;;;4.30;99.90;;;;;;2098103;28;20036;-73
2021/11/12 07:35:26;;;;;;;60.42;34.33;;;4.30;99.90;;;;;;2098029;28;20016;-73
2021/11/12 07:36:39;;;;;;;45.47;24.20;;;4.30;99.90;;;;;;2098645;28;20476;-73
2021/11/12 07:37:40;;;;;;;42.20;23.42;;;4.30;99.90;;;;;;2099003;28;20044;-73
2021/11/12 07:38:55;;;;;;;42.55;23.67;;;4.20;99.90;;;;;;2098577;28;20040;-74
2021/11/12 07:39:59;;;;;;;44.67;23.20;;;4.20;99.90;;;;;;2099373;28;20042;-72
2021/11/12 07:41:13;;;;;;;44.95;24.00;;;4.30;99.90;;;;;;2100147;28;20020;-75
2021/11/12 07:42:27;;;;;;;43.80;23.13;;;4.30;99.90;;;;;;2099807;28;20025;-72
2021/11/12 07:45:09;;;;;;;41.63;21.73;;;4.40;99.90;;;;;;2097651;28;20052;-75
2021/11/12 07:46:13;;;;;;;40.53;21.15;;;4.40;99.90;;;;;;2098185;28;20046;-74
2021/11/12 07:47:15;;;;;;;41.88;21.50;;;4.50;99.90;;;;;;2098115;28;20020;-74
2021/11/12 07:48:16;;;;;;;41.22;21.33;;;4.50;99.90;;;;;;2098113;28;20108;-74
2021/11/12 07:49:17;;;;;;;39.50;21.73;;;4.50;99.90;;;;;;2097816;28;20036;-74
2021/11/12 07:50:17;;;;;;;42.10;22.48;;;4.50;99.90;;;;;;2097525;28;20475;-74
2021/11/12 07:51:18;;;;;;;44.88;22.65;;;4.50;99.90;;;;;;2097750;28;20388;-74
2021/11/12 07:52:21;;;;;;;41.08;22.15;;;4.50;99.90;;;;;;2097983;28;20559;-72
2021/11/12 07:53:22;;;;;;;42.45;21.52;;;4.40;99.90;;;;;;2097788;28;20032;-74
2021/11/12 07:54:23;;;;;;;41.53;21.38;;;4.40;99.90;;;;;;2097364;28;20457;-75
2021/11/12 07:55:23;;;;;;;41.13;21.52;;;4.40;99.90;;;;;;2097411;28;20498;-74
2021/11/12 07:56:25;;;;;;;38.40;21.10;;;4.40;99.90;;;;;;2098056;28;20020;-74
2021/11/12 07:57:26;;;;;;;38.45;21.02;;;4.40;99.90;;;;;;2097948;28;20464;-75
2021/11/12 07:58:27;;;;;;;38.47;21.48;;;4.40;99.90;;;;;;2097781;28;20025;-74
2021/11/12 07:59:28;;;;;;;40.60;22.13;;;4.40;99.90;;;;;;2096687;28;20033;-74
2021/11/12 08:00:29;;;;;;;41.85;22.25;;;4.50;99.90;;;;;;2096906;28;20020;-73
2021/11/12 08:01:30;;;;;;;39.17;21.52;;;4.50;99.90;;;;;;2096773;28;20047;-74
2021/11/12 08:02:30;;;;;;;37.10;20.50;;;4.50;99.90;;;;;;2097885;28;20021;-74
2021/11/12 08:03:31;;;;;;;38.50;20.33;;;4.50;99.90;;;;;;2096887;28;20098;-73
2021/11/12 08:04:35;;;;;;;38.25;20.48;;;4.60;99.90;;;;;;2097138;28;20029;-74
2021/11/12 08:05:39;;;;;;;36.72;20.40;;;4.60;99.90;;;;;;2097269;28;20656;-74
2021/11/12 08:06:39;;;;;;;38.72;20.88;;;4.60;99.90;;;;;;2097346;28;20048;-73
2021/11/12 08:07:40;;;;;;;44.55;23.27;;;4.60;99.90;;;;;;2097743;28;20442;-74
2021/11/12 08:08:46;;;;;;;42.00;24.40;;;4.60;99.90;;;;;;2097098;28;20024;-73
2021/11/12 08:09:57;;;;;;;40.60;22.70;;;4.60;99.90;;;;;;2096975;28;20019;-73
2021/11/12 08:11:19;;;;;;;39.67;21.83;;;4.60;99.90;;;;;;2098230;28;20067;-74
2021/11/12 08:12:39;;;;;;;39.25;21.63;;;4.70;99.90;;;;;;2097233;28;20028;-75
2021/11/12 08:13:48;;;;;;;46.63;24.52;;;4.70;99.90;;;;;;2097309;28;20041;-74
2021/11/12 08:15:07;;;;;;;62.70;35.72;;;4.70;99.90;;;;;;2097214;28;20029;-74
2021/11/12 08:19:07;;;;;;;40.63;22.73;;;4.80;99.90;;;;;;2092177;28;20040;-73
2021/11/12 08:20:18;;;;;;;38.80;21.50;;;4.80;99.90;;;;;;2096688;28;20048;-74